sensor_id;sensor_type;location;lat;lon;timestamp;P1;durP1;ratioP1;P2;durP2;ratioP2
17251;SDS011;8742;51.716;8.790;2023-04-01T00:00:50;1.80;;;0.70;;
17251;SDS011;8742;51.716;8.790;2023-04-01T00:03:18;0.80;;;0.30;;
17251;SDS011;8742;51.716;8.790;2023-04-01T00:05:45;1.50;;;0.53;;
17251;SDS011;8742;51.716;8.790;2023-04-01T00:08:13;0.70;;;0.53;;
17251;SDS011;8742;51.716;8.790;2023-04-01T00:10:39;1.40;;;0.40;;
17251;SDS011;8742;51.716;8.790;2023-04-01T00:13:06;2.13;;;0.50;;
17251;SDS011;8742;51.716;8.790;2023-04-01T00:15:34;1.60;;;0.60;;
17251;SDS011;8742;51.716;8.790;2023-04-01T00:18:02;0.80;;;0.40;;
17251;SDS011;8742;51.716;8.790;2023-04-01T00:20:29;0.70;;;0.47;;
17251;SDS011;8742;51.716;8.790;2023-04-01T00:22:56;2.70;;;0.87;;
17251;SDS011;8742;51.716;8.790;2023-04-01T00:25:23;3.13;;;0.40;;
17251;SDS011;8742;51.716;8.790;2023-04-01T00:27:50;0.30;;;0.30;;
17251;SDS011;8742;51.716;8.790;2023-04-01T00:30:17;1.70;;;0.40;;
17251;SDS011;8742;51.716;8.790;2023-04-01T00:32:44;1.43;;;0.47;;
17251;SDS011;8742;51.716;8.790;2023-04-01T00:35:12;3.20;;;0.33;;
17251;SDS011;8742;51.716;8.790;2023-04-01T00:37:39;3.50;;;0.40;;
17251;SDS011;8742;51.716;8.790;2023-04-01T00:40:07;0.60;;;0.40;;
17251;SDS011;8742;51.716;8.790;2023-04-01T00:42:47;1.77;;;0.30;;
17251;SDS011;8742;51.716;8.790;2023-04-01T00:45:24;0.40;;;0.40;;
17251;SDS011;8742;51.716;8.790;2023-04-01T00:48:04;1.70;;;0.50;;
17251;SDS011;8742;51.716;8.790;2023-04-01T00:50:36;1.00;;;0.37;;
17251;SDS011;8742;51.716;8.790;2023-04-01T00:53:05;1.87;;;0.50;;
17251;SDS011;8742;51.716;8.790;2023-04-01T00:55:34;1.63;;;0.30;;
17251;SDS011;8742;51.716;8.790;2023-04-01T00:58:03;1.47;;;0.40;;
17251;SDS011;8742;51.716;8.790;2023-04-01T01:00:33;0.93;;;0.40;;
17251;SDS011;8742;51.716;8.790;2023-04-01T01:03:02;1.23;;;0.30;;
17251;SDS011;8742;51.716;8.790;2023-04-01T01:05:31;2.20;;;0.27;;
17251;SDS011;8742;51.716;8.790;2023-04-01T01:08:12;0.60;;;0.27;;
17251;SDS011;8742;51.716;8.790;2023-04-01T01:10:44;2.53;;;0.63;;
17251;SDS011;8742;51.716;8.790;2023-04-01T01:13:16;1.00;;;0.63;;
17251;SDS011;8742;51.716;8.790;2023-04-01T01:15:48;0.40;;;0.30;;
17251;SDS011;8742;51.716;8.790;2023-04-01T01:18:19;0.77;;;0.27;;
17251;SDS011;8742;51.716;8.790;2023-04-01T01:21:00;0.93;;;0.40;;
17251;SDS011;8742;51.716;8.790;2023-04-01T01:23:48;3.40;;;0.37;;
17251;SDS011;8742;51.716;8.790;2023-04-01T01:29:34;2.67;;;0.47;;
17251;SDS011;8742;51.716;8.790;2023-04-01T01:32:21;1.20;;;0.33;;
17251;SDS011;8742;51.716;8.790;2023-04-01T01:35:08;0.27;;;0.27;;
17251;SDS011;8742;51.716;8.790;2023-04-01T01:37:45;0.70;;;0.53;;
17251;SDS011;8742;51.716;8.790;2023-04-01T01:40:15;0.30;;;0.30;;
17251;SDS011;8742;51.716;8.790;2023-04-01T01:42:43;0.10;;;0.10;;
17251;SDS011;8742;51.716;8.790;2023-04-01T01:45:14;1.97;;;0.50;;
17251;SDS011;8742;51.716;8.790;2023-04-01T01:47:44;1.43;;;0.33;;
17251;SDS011;8742;51.716;8.790;2023-04-01T01:50:13;1.37;;;0.37;;
17251;SDS011;8742;51.716;8.790;2023-04-01T01:52:41;1.40;;;0.40;;
17251;SDS011;8742;51.716;8.790;2023-04-01T01:55:23;0.13;;;0.13;;
17251;SDS011;8742;51.716;8.790;2023-04-01T01:57:53;0.37;;;0.27;;
17251;SDS011;8742;51.716;8.790;2023-04-01T02:00:23;0.43;;;0.30;;
17251;SDS011;8742;51.716;8.790;2023-04-01T02:02:51;0.60;;;0.10;;
17251;SDS011;8742;51.716;8.790;2023-04-01T02:05:21;0.20;;;0.20;;
17251;SDS011;8742;51.716;8.790;2023-04-01T02:07:52;1.17;;;0.30;;
17251;SDS011;8742;51.716;8.790;2023-04-01T02:10:24;0.50;;;0.17;;
17251;SDS011;8742;51.716;8.790;2023-04-01T02:12:53;0.20;;;0.20;;
17251;SDS011;8742;51.716;8.790;2023-04-01T02:15:24;0.20;;;0.20;;
17251;SDS011;8742;51.716;8.790;2023-04-01T02:17:55;0.47;;;0.23;;
17251;SDS011;8742;51.716;8.790;2023-04-01T02:20:24;0.47;;;0.43;;
17251;SDS011;8742;51.716;8.790;2023-04-01T02:22:53;1.43;;;0.30;;
17251;SDS011;8742;51.716;8.790;2023-04-01T02:25:23;1.70;;;0.47;;
17251;SDS011;8742;51.716;8.790;2023-04-01T02:27:53;1.80;;;0.20;;
17251;SDS011;8742;51.716;8.790;2023-04-01T02:30:22;0.40;;;0.23;;
17251;SDS011;8742;51.716;8.790;2023-04-01T02:32:50;2.43;;;0.60;;
17251;SDS011;8742;51.716;8.790;2023-04-01T02:35:17;2.07;;;0.40;;
17251;SDS011;8742;51.716;8.790;2023-04-01T02:37:46;1.57;;;0.50;;
17251;SDS011;8742;51.716;8.790;2023-04-01T02:40:16;0.30;;;0.03;;
17251;SDS011;8742;51.716;8.790;2023-04-01T02:42:43;1.30;;;0.30;;
17251;SDS011;8742;51.716;8.790;2023-04-01T02:45:11;0.60;;;0.20;;
17251;SDS011;8742;51.716;8.790;2023-04-01T02:47:39;1.20;;;0.30;;
17251;SDS011;8742;51.716;8.790;2023-04-01T02:50:06;1.70;;;0.20;;
17251;SDS011;8742;51.716;8.790;2023-04-01T02:52:33;1.20;;;0.20;;
17251;SDS011;8742;51.716;8.790;2023-04-01T02:55:02;1.60;;;0.20;;
17251;SDS011;8742;51.716;8.790;2023-04-01T02:57:30;0.67;;;0.40;;
17251;SDS011;8742;51.716;8.790;2023-04-01T02:59:56;0.30;;;0.20;;
17251;SDS011;8742;51.716;8.790;2023-04-01T03:02:23;0.60;;;0.40;;
17251;SDS011;8742;51.716;8.790;2023-04-01T03:04:50;0.00;;;0.00;;
17251;SDS011;8742;51.716;8.790;2023-04-01T03:07:17;3.63;;;0.50;;
17251;SDS011;8742;51.716;8.790;2023-04-01T03:09:44;0.13;;;0.13;;
17251;SDS011;8742;51.716;8.790;2023-04-01T03:12:12;0.20;;;0.13;;
17251;SDS011;8742;51.716;8.790;2023-04-01T03:14:39;0.57;;;0.17;;
17251;SDS011;8742;51.716;8.790;2023-04-01T03:17:06;0.43;;;0.10;;
17251;SDS011;8742;51.716;8.790;2023-04-01T03:19:32;0.67;;;0.10;;
17251;SDS011;8742;51.716;8.790;2023-04-01T03:21:59;2.17;;;0.30;;
17251;SDS011;8742;51.716;8.790;2023-04-01T03:24:26;0.00;;;0.00;;
17251;SDS011;8742;51.716;8.790;2023-04-01T03:26:53;0.73;;;0.27;;
17251;SDS011;8742;51.716;8.790;2023-04-01T03:29:21;0.20;;;0.20;;
17251;SDS011;8742;51.716;8.790;2023-04-01T03:31:48;0.50;;;0.20;;
17251;SDS011;8742;51.716;8.790;2023-04-01T03:34:15;0.10;;;0.00;;
17251;SDS011;8742;51.716;8.790;2023-04-01T03:36:41;0.47;;;0.10;;
17251;SDS011;8742;51.716;8.790;2023-04-01T03:39:08;1.73;;;0.20;;
17251;SDS011;8742;51.716;8.790;2023-04-01T03:41:35;0.10;;;0.10;;
17251;SDS011;8742;51.716;8.790;2023-04-01T03:44:03;2.53;;;0.13;;
17251;SDS011;8742;51.716;8.790;2023-04-01T03:46:31;0.40;;;0.20;;
17251;SDS011;8742;51.716;8.790;2023-04-01T03:48:58;0.00;;;0.00;;
17251;SDS011;8742;51.716;8.790;2023-04-01T03:51:25;1.20;;;0.70;;
17251;SDS011;8742;51.716;8.790;2023-04-01T03:53:52;1.53;;;0.63;;
17251;SDS011;8742;51.716;8.790;2023-04-01T03:56:18;0.67;;;0.40;;
17251;SDS011;8742;51.716;8.790;2023-04-01T03:58:45;0.23;;;0.20;;
17251;SDS011;8742;51.716;8.790;2023-04-01T04:01:13;0.30;;;0.10;;
17251;SDS011;8742;51.716;8.790;2023-04-01T04:03:42;0.23;;;0.20;;
17251;SDS011;8742;51.716;8.790;2023-04-01T04:06:11;0.30;;;0.30;;
17251;SDS011;8742;51.716;8.790;2023-04-01T04:08:38;0.50;;;0.40;;
17251;SDS011;8742;51.716;8.790;2023-04-01T04:11:05;0.63;;;0.27;;
17251;SDS011;8742;51.716;8.790;2023-04-01T04:13:32;0.60;;;0.20;;
17251;SDS011;8742;51.716;8.790;2023-04-01T04:15:59;0.40;;;0.13;;
17251;SDS011;8742;51.716;8.790;2023-04-01T04:18:26;0.57;;;0.10;;
17251;SDS011;8742;51.716;8.790;2023-04-01T04:20:54;0.97;;;0.10;;
17251;SDS011;8742;51.716;8.790;2023-04-01T04:23:21;0.77;;;0.10;;
17251;SDS011;8742;51.716;8.790;2023-04-01T04:25:55;0.40;;;0.30;;
17251;SDS011;8742;51.716;8.790;2023-04-01T04:28:22;0.97;;;0.10;;
17251;SDS011;8742;51.716;8.790;2023-04-01T04:30:50;1.00;;;0.60;;
17251;SDS011;8742;51.716;8.790;2023-04-01T04:33:17;0.83;;;0.30;;
17251;SDS011;8742;51.716;8.790;2023-04-01T04:35:44;0.30;;;0.10;;
17251;SDS011;8742;51.716;8.790;2023-04-01T04:38:12;0.53;;;0.10;;
17251;SDS011;8742;51.716;8.790;2023-04-01T04:40:39;0.53;;;0.20;;
17251;SDS011;8742;51.716;8.790;2023-04-01T04:43:07;1.40;;;0.57;;
17251;SDS011;8742;51.716;8.790;2023-04-01T04:45:36;0.40;;;0.00;;
17251;SDS011;8742;51.716;8.790;2023-04-01T04:48:03;0.53;;;0.20;;
17251;SDS011;8742;51.716;8.790;2023-04-01T04:50:30;2.57;;;0.30;;
17251;SDS011;8742;51.716;8.790;2023-04-01T04:52:57;1.40;;;0.20;;
17251;SDS011;8742;51.716;8.790;2023-04-01T04:55:25;0.40;;;0.00;;
17251;SDS011;8742;51.716;8.790;2023-04-01T04:57:52;6.43;;;0.20;;
17251;SDS011;8742;51.716;8.790;2023-04-01T05:00:19;0.50;;;0.17;;
17251;SDS011;8742;51.716;8.790;2023-04-01T05:02:46;0.10;;;0.10;;
17251;SDS011;8742;51.716;8.790;2023-04-01T05:05:13;0.20;;;0.10;;
17251;SDS011;8742;51.716;8.790;2023-04-01T05:07:40;0.30;;;0.30;;
17251;SDS011;8742;51.716;8.790;2023-04-01T05:10:07;4.70;;;0.30;;
17251;SDS011;8742;51.716;8.790;2023-04-01T05:12:36;1.50;;;0.20;;
17251;SDS011;8742;51.716;8.790;2023-04-01T05:15:04;0.30;;;0.10;;
17251;SDS011;8742;51.716;8.790;2023-04-01T05:17:33;0.20;;;0.10;;
17251;SDS011;8742;51.716;8.790;2023-04-01T05:20:00;2.37;;;0.20;;
17251;SDS011;8742;51.716;8.790;2023-04-01T05:22:27;0.33;;;0.10;;
17251;SDS011;8742;51.716;8.790;2023-04-01T05:24:54;0.30;;;0.10;;
17251;SDS011;8742;51.716;8.790;2023-04-01T05:27:21;0.47;;;0.10;;
17251;SDS011;8742;51.716;8.790;2023-04-01T05:29:49;0.63;;;0.23;;
17251;SDS011;8742;51.716;8.790;2023-04-01T05:32:16;0.20;;;0.10;;
17251;SDS011;8742;51.716;8.790;2023-04-01T05:34:43;0.13;;;0.10;;
17251;SDS011;8742;51.716;8.790;2023-04-01T05:37:10;0.10;;;0.10;;
17251;SDS011;8742;51.716;8.790;2023-04-01T05:39:37;0.47;;;0.20;;
17251;SDS011;8742;51.716;8.790;2023-04-01T05:42:05;0.33;;;0.10;;
17251;SDS011;8742;51.716;8.790;2023-04-01T05:44:33;0.40;;;0.20;;
17251;SDS011;8742;51.716;8.790;2023-04-01T05:47:01;0.60;;;0.10;;
17251;SDS011;8742;51.716;8.790;2023-04-01T05:49:28;0.23;;;0.23;;
17251;SDS011;8742;51.716;8.790;2023-04-01T05:51:55;0.10;;;0.10;;
17251;SDS011;8742;51.716;8.790;2023-04-01T05:54:22;0.10;;;0.00;;
17251;SDS011;8742;51.716;8.790;2023-04-01T05:56:49;0.73;;;0.17;;
17251;SDS011;8742;51.716;8.790;2023-04-01T05:59:16;0.17;;;0.17;;
17251;SDS011;8742;51.716;8.790;2023-04-01T06:01:43;0.27;;;0.23;;
17251;SDS011;8742;51.716;8.790;2023-04-01T06:04:13;0.40;;;0.10;;
17251;SDS011;8742;51.716;8.790;2023-04-01T06:06:42;0.20;;;0.00;;
17251;SDS011;8742;51.716;8.790;2023-04-01T06:09:12;0.23;;;0.10;;
17251;SDS011;8742;51.716;8.790;2023-04-01T06:11:44;0.13;;;0.10;;
17251;SDS011;8742;51.716;8.790;2023-04-01T06:14:24;0.20;;;0.20;;
17251;SDS011;8742;51.716;8.790;2023-04-01T06:17:03;0.30;;;0.30;;
17251;SDS011;8742;51.716;8.790;2023-04-01T06:19:49;0.10;;;0.10;;
17251;SDS011;8742;51.716;8.790;2023-04-01T06:22:26;0.83;;;0.40;;
17251;SDS011;8742;51.716;8.790;2023-04-01T06:25:17;0.20;;;0.20;;
17251;SDS011;8742;51.716;8.790;2023-04-01T06:27:58;3.70;;;0.50;;
17251;SDS011;8742;51.716;8.790;2023-04-01T06:30:38;0.43;;;0.20;;
17251;SDS011;8742;51.716;8.790;2023-04-01T06:33:12;1.23;;;0.20;;
17251;SDS011;8742;51.716;8.790;2023-04-01T06:36:04;0.40;;;0.30;;
17251;SDS011;8742;51.716;8.790;2023-04-01T06:41:56;0.20;;;0.20;;
17251;SDS011;8742;51.716;8.790;2023-04-01T06:44:43;0.23;;;0.23;;
17251;SDS011;8742;51.716;8.790;2023-04-01T06:47:26;1.47;;;0.50;;
17251;SDS011;8742;51.716;8.790;2023-04-01T06:50:05;0.30;;;0.20;;
17251;SDS011;8742;51.716;8.790;2023-04-01T06:52:40;0.53;;;0.37;;
17251;SDS011;8742;51.716;8.790;2023-04-01T06:55:17;1.33;;;0.30;;
17251;SDS011;8742;51.716;8.790;2023-04-01T06:57:52;0.23;;;0.23;;
17251;SDS011;8742;51.716;8.790;2023-04-01T07:00:23;0.63;;;0.33;;
17251;SDS011;8742;51.716;8.790;2023-04-01T07:02:56;1.33;;;0.33;;
17251;SDS011;8742;51.716;8.790;2023-04-01T07:05:31;0.33;;;0.30;;
17251;SDS011;8742;51.716;8.790;2023-04-01T07:08:01;0.30;;;0.17;;
17251;SDS011;8742;51.716;8.790;2023-04-01T07:10:33;0.10;;;0.10;;
17251;SDS011;8742;51.716;8.790;2023-04-01T07:13:10;0.57;;;0.47;;
17251;SDS011;8742;51.716;8.790;2023-04-01T07:15:42;0.30;;;0.27;;
17251;SDS011;8742;51.716;8.790;2023-04-01T07:18:12;0.40;;;0.40;;
17251;SDS011;8742;51.716;8.790;2023-04-01T07:20:42;0.20;;;0.20;;
17251;SDS011;8742;51.716;8.790;2023-04-01T07:23:15;2.27;;;0.30;;
17251;SDS011;8742;51.716;8.790;2023-04-01T07:25:47;0.97;;;0.50;;
17251;SDS011;8742;51.716;8.790;2023-04-01T07:28:18;0.20;;;0.20;;
17251;SDS011;8742;51.716;8.790;2023-04-01T07:30:51;4.33;;;0.30;;
17251;SDS011;8742;51.716;8.790;2023-04-01T07:33:28;0.47;;;0.20;;
17251;SDS011;8742;51.716;8.790;2023-04-01T07:36:05;0.33;;;0.20;;
17251;SDS011;8742;51.716;8.790;2023-04-01T07:38:42;0.37;;;0.20;;
17251;SDS011;8742;51.716;8.790;2023-04-01T07:41:23;0.63;;;0.23;;
17251;SDS011;8742;51.716;8.790;2023-04-01T07:44:01;0.40;;;0.20;;
17251;SDS011;8742;51.716;8.790;2023-04-01T07:46:48;0.47;;;0.10;;
17251;SDS011;8742;51.716;8.790;2023-04-01T07:49:22;1.63;;;0.30;;
17251;SDS011;8742;51.716;8.790;2023-04-01T07:51:56;0.23;;;0.23;;
17251;SDS011;8742;51.716;8.790;2023-04-01T07:54:31;0.43;;;0.17;;
17251;SDS011;8742;51.716;8.790;2023-04-01T07:57:05;0.20;;;0.20;;
17251;SDS011;8742;51.716;8.790;2023-04-01T07:59:39;1.90;;;0.40;;
17251;SDS011;8742;51.716;8.790;2023-04-01T08:02:16;1.47;;;0.37;;
17251;SDS011;8742;51.716;8.790;2023-04-01T08:04:53;1.07;;;0.30;;
17251;SDS011;8742;51.716;8.790;2023-04-01T08:07:29;0.63;;;0.30;;
17251;SDS011;8742;51.716;8.790;2023-04-01T08:10:09;0.97;;;0.43;;
17251;SDS011;8742;51.716;8.790;2023-04-01T08:12:42;0.80;;;0.40;;
17251;SDS011;8742;51.716;8.790;2023-04-01T08:15:19;2.20;;;0.60;;
17251;SDS011;8742;51.716;8.790;2023-04-01T08:17:54;0.40;;;0.40;;
17251;SDS011;8742;51.716;8.790;2023-04-01T08:20:32;0.83;;;0.60;;
17251;SDS011;8742;51.716;8.790;2023-04-01T08:23:05;0.33;;;0.20;;
17251;SDS011;8742;51.716;8.790;2023-04-01T08:25:39;0.30;;;0.30;;
17251;SDS011;8742;51.716;8.790;2023-04-01T08:28:13;0.10;;;0.10;;
17251;SDS011;8742;51.716;8.790;2023-04-01T08:30:47;0.60;;;0.60;;
17251;SDS011;8742;51.716;8.790;2023-04-01T08:33:15;1.40;;;0.40;;
17251;SDS011;8742;51.716;8.790;2023-04-01T08:35:46;3.70;;;2.27;;
17251;SDS011;8742;51.716;8.790;2023-04-01T08:38:18;5.40;;;3.70;;
17251;SDS011;8742;51.716;8.790;2023-04-01T08:41:01;0.40;;;0.40;;
17251;SDS011;8742;51.716;8.790;2023-04-01T08:43:42;2.90;;;1.87;;
17251;SDS011;8742;51.716;8.790;2023-04-01T08:46:37;0.20;;;0.20;;
17251;SDS011;8742;51.716;8.790;2023-04-01T08:49:33;0.53;;;0.53;;
17251;SDS011;8742;51.716;8.790;2023-04-01T08:52:19;0.83;;;0.83;;
17251;SDS011;8742;51.716;8.790;2023-04-01T08:55:01;0.17;;;0.17;;
17251;SDS011;8742;51.716;8.790;2023-04-01T08:57:44;0.10;;;0.10;;
17251;SDS011;8742;51.716;8.790;2023-04-01T09:00:21;0.57;;;0.37;;
17251;SDS011;8742;51.716;8.790;2023-04-01T09:02:56;1.03;;;0.50;;
17251;SDS011;8742;51.716;8.790;2023-04-01T09:05:46;0.60;;;0.50;;
17251;SDS011;8742;51.716;8.790;2023-04-01T09:08:32;0.70;;;0.67;;
17251;SDS011;8742;51.716;8.790;2023-04-01T09:11:12;0.40;;;0.40;;
17251;SDS011;8742;51.716;8.790;2023-04-01T09:16:58;0.23;;;0.20;;
17251;SDS011;8742;51.716;8.790;2023-04-01T09:19:50;0.23;;;0.23;;
17251;SDS011;8742;51.716;8.790;2023-04-01T09:22:36;0.10;;;0.10;;
17251;SDS011;8742;51.716;8.790;2023-04-01T09:25:19;0.30;;;0.30;;
17251;SDS011;8742;51.716;8.790;2023-04-01T09:27:55;0.10;;;0.10;;
17251;SDS011;8742;51.716;8.790;2023-04-01T09:30:38;0.40;;;0.30;;
17251;SDS011;8742;51.716;8.790;2023-04-01T09:33:46;0.10;;;0.10;;
17251;SDS011;8742;51.716;8.790;2023-04-01T09:36:33;1.00;;;0.90;;
17251;SDS011;8742;51.716;8.790;2023-04-01T09:39:16;0.47;;;0.40;;
17251;SDS011;8742;51.716;8.790;2023-04-01T09:45:09;0.80;;;0.80;;
17251;SDS011;8742;51.716;8.790;2023-04-01T09:47:54;0.40;;;0.30;;
17251;SDS011;8742;51.716;8.790;2023-04-01T09:50:32;0.10;;;0.00;;
17251;SDS011;8742;51.716;8.790;2023-04-01T09:53:12;0.20;;;0.20;;
17251;SDS011;8742;51.716;8.790;2023-04-01T10:02:06;0.40;;;0.20;;
17251;SDS011;8742;51.716;8.790;2023-04-01T10:14:07;0.10;;;0.10;;
17251;SDS011;8742;51.716;8.790;2023-04-01T10:17:08;0.80;;;0.43;;
17251;SDS011;8742;51.716;8.790;2023-04-01T10:20:12;0.30;;;0.30;;
17251;SDS011;8742;51.716;8.790;2023-04-01T10:22:58;0.90;;;0.77;;
17251;SDS011;8742;51.716;8.790;2023-04-01T10:25:41;0.97;;;0.30;;
17251;SDS011;8742;51.716;8.790;2023-04-01T10:37:21;0.30;;;0.30;;
17251;SDS011;8742;51.716;8.790;2023-04-01T10:40:13;1.33;;;0.50;;
17251;SDS011;8742;51.716;8.790;2023-04-01T10:46:22;0.30;;;0.30;;
17251;SDS011;8742;51.716;8.790;2023-04-01T10:55:14;0.20;;;0.20;;
17251;SDS011;8742;51.716;8.790;2023-04-01T10:58:02;2.37;;;0.30;;
17251;SDS011;8742;51.716;8.790;2023-04-01T11:00:58;0.20;;;0.20;;
17251;SDS011;8742;51.716;8.790;2023-04-01T11:07:04;1.27;;;0.40;;
17251;SDS011;8742;51.716;8.790;2023-04-01T11:13:08;0.40;;;0.40;;
17251;SDS011;8742;51.716;8.790;2023-04-01T11:18:59;0.30;;;0.30;;
17251;SDS011;8742;51.716;8.790;2023-04-01T11:22:01;0.67;;;0.50;;
17251;SDS011;8742;51.716;8.790;2023-04-01T11:24:59;0.40;;;0.40;;
17251;SDS011;8742;51.716;8.790;2023-04-01T11:27:50;0.90;;;0.60;;
17251;SDS011;8742;51.716;8.790;2023-04-01T11:30:41;0.43;;;0.30;;
17251;SDS011;8742;51.716;8.790;2023-04-01T11:33:22;1.53;;;0.57;;
17251;SDS011;8742;51.716;8.790;2023-04-01T11:39:00;0.50;;;0.50;;
17251;SDS011;8742;51.716;8.790;2023-04-01T11:41:37;0.37;;;0.37;;
17251;SDS011;8742;51.716;8.790;2023-04-01T11:44:17;0.40;;;0.40;;
17251;SDS011;8742;51.716;8.790;2023-04-01T11:46:48;1.23;;;0.50;;
17251;SDS011;8742;51.716;8.790;2023-04-01T11:49:33;0.73;;;0.60;;
17251;SDS011;8742;51.716;8.790;2023-04-01T11:52:19;3.77;;;0.73;;
17251;SDS011;8742;51.716;8.790;2023-04-01T11:54:59;0.60;;;0.60;;
17251;SDS011;8742;51.716;8.790;2023-04-01T11:57:43;0.40;;;0.40;;
17251;SDS011;8742;51.716;8.790;2023-04-01T12:00:22;0.73;;;0.53;;
17251;SDS011;8742;51.716;8.790;2023-04-01T12:03:13;0.73;;;0.40;;
17251;SDS011;8742;51.716;8.790;2023-04-01T12:06:02;4.03;;;3.70;;
17251;SDS011;8742;51.716;8.790;2023-04-01T12:08:38;0.63;;;0.50;;
17251;SDS011;8742;51.716;8.790;2023-04-01T12:11:17;0.50;;;0.50;;
17251;SDS011;8742;51.716;8.790;2023-04-01T12:13:52;0.40;;;0.40;;
17251;SDS011;8742;51.716;8.790;2023-04-01T12:16:26;0.50;;;0.40;;
17251;SDS011;8742;51.716;8.790;2023-04-01T12:19:15;0.70;;;0.40;;
17251;SDS011;8742;51.716;8.790;2023-04-01T12:21:52;0.30;;;0.27;;
17251;SDS011;8742;51.716;8.790;2023-04-01T12:24:42;0.40;;;0.40;;
17251;SDS011;8742;51.716;8.790;2023-04-01T12:27:16;0.20;;;0.20;;
17251;SDS011;8742;51.716;8.790;2023-04-01T12:30:05;0.20;;;0.20;;
17251;SDS011;8742;51.716;8.790;2023-04-01T12:32:43;1.97;;;0.90;;
17251;SDS011;8742;51.716;8.790;2023-04-01T12:35:18;4.93;;;1.07;;
17251;SDS011;8742;51.716;8.790;2023-04-01T12:37:59;0.70;;;0.33;;
17251;SDS011;8742;51.716;8.790;2023-04-01T12:40:44;0.40;;;0.40;;
17251;SDS011;8742;51.716;8.790;2023-04-01T12:43:31;0.50;;;0.50;;
17251;SDS011;8742;51.716;8.790;2023-04-01T12:46:15;0.87;;;0.70;;
17251;SDS011;8742;51.716;8.790;2023-04-01T12:49:03;6.40;;;0.73;;
17251;SDS011;8742;51.716;8.790;2023-04-01T12:51:58;1.53;;;0.73;;
17251;SDS011;8742;51.716;8.790;2023-04-01T12:57:47;1.00;;;0.90;;
17251;SDS011;8742;51.716;8.790;2023-04-01T13:00:34;0.80;;;0.80;;
17251;SDS011;8742;51.716;8.790;2023-04-01T13:03:21;2.23;;;1.30;;
17251;SDS011;8742;51.716;8.790;2023-04-01T13:08:57;1.77;;;1.67;;
17251;SDS011;8742;51.716;8.790;2023-04-01T13:11:32;1.13;;;1.10;;
17251;SDS011;8742;51.716;8.790;2023-04-01T13:14:13;3.40;;;2.23;;
17251;SDS011;8742;51.716;8.790;2023-04-01T13:17:02;2.17;;;1.90;;
17251;SDS011;8742;51.716;8.790;2023-04-01T13:19:38;0.87;;;0.87;;
17251;SDS011;8742;51.716;8.790;2023-04-01T13:22:13;1.47;;;1.20;;
17251;SDS011;8742;51.716;8.790;2023-04-01T13:24:46;1.50;;;1.27;;
17251;SDS011;8742;51.716;8.790;2023-04-01T13:27:21;0.97;;;0.90;;
17251;SDS011;8742;51.716;8.790;2023-04-01T13:29:59;1.40;;;0.97;;
17251;SDS011;8742;51.716;8.790;2023-04-01T13:32:37;3.07;;;1.43;;
17251;SDS011;8742;51.716;8.790;2023-04-01T13:35:15;2.07;;;1.00;;
17251;SDS011;8742;51.716;8.790;2023-04-01T13:40:51;5.27;;;3.83;;
17251;SDS011;8742;51.716;8.790;2023-04-01T13:43:25;2.17;;;1.50;;
17251;SDS011;8742;51.716;8.790;2023-04-01T13:46:08;1.07;;;0.97;;
17251;SDS011;8742;51.716;8.790;2023-04-01T13:48:52;0.50;;;0.50;;
17251;SDS011;8742;51.716;8.790;2023-04-01T13:57:23;1.00;;;1.00;;
17251;SDS011;8742;51.716;8.790;2023-04-01T14:03:14;1.73;;;0.90;;
17251;SDS011;8742;51.716;8.790;2023-04-01T14:06:04;0.83;;;0.63;;
17251;SDS011;8742;51.716;8.790;2023-04-01T14:08:42;1.07;;;0.97;;
17251;SDS011;8742;51.716;8.790;2023-04-01T14:11:23;1.30;;;1.20;;
17251;SDS011;8742;51.716;8.790;2023-04-01T14:13:56;0.80;;;0.80;;
17251;SDS011;8742;51.716;8.790;2023-04-01T14:16:35;4.53;;;0.90;;
17251;SDS011;8742;51.716;8.790;2023-04-01T14:19:38;1.83;;;1.03;;
17251;SDS011;8742;51.716;8.790;2023-04-01T14:22:17;1.80;;;1.10;;
17251;SDS011;8742;51.716;8.790;2023-04-01T14:25:00;1.03;;;0.87;;
17251;SDS011;8742;51.716;8.790;2023-04-01T14:27:48;1.27;;;1.10;;
17251;SDS011;8742;51.716;8.790;2023-04-01T14:30:27;1.80;;;1.40;;
17251;SDS011;8742;51.716;8.790;2023-04-01T14:33:04;2.10;;;1.40;;
17251;SDS011;8742;51.716;8.790;2023-04-01T14:35:41;2.67;;;2.10;;
17251;SDS011;8742;51.716;8.790;2023-04-01T14:41:17;1.20;;;1.10;;
17251;SDS011;8742;51.716;8.790;2023-04-01T14:43:48;0.70;;;0.70;;
17251;SDS011;8742;51.716;8.790;2023-04-01T14:46:41;5.07;;;3.43;;
17251;SDS011;8742;51.716;8.790;2023-04-01T14:49:31;1.80;;;1.50;;
17251;SDS011;8742;51.716;8.790;2023-04-01T14:52:04;0.90;;;0.90;;
17251;SDS011;8742;51.716;8.790;2023-04-01T14:54:38;1.03;;;0.93;;
17251;SDS011;8742;51.716;8.790;2023-04-01T14:57:10;3.17;;;2.00;;
17251;SDS011;8742;51.716;8.790;2023-04-01T14:59:41;7.00;;;2.43;;
17251;SDS011;8742;51.716;8.790;2023-04-01T15:05:10;4.07;;;2.63;;
17251;SDS011;8742;51.716;8.790;2023-04-01T15:07:55;6.37;;;3.13;;
17251;SDS011;8742;51.716;8.790;2023-04-01T15:10:37;7.37;;;4.57;;
17251;SDS011;8742;51.716;8.790;2023-04-01T15:13:41;3.40;;;2.63;;
17251;SDS011;8742;51.716;8.790;2023-04-01T15:16:23;2.40;;;1.83;;
17251;SDS011;8742;51.716;8.790;2023-04-01T15:19:00;2.80;;;2.47;;
17251;SDS011;8742;51.716;8.790;2023-04-01T15:21:41;3.43;;;2.73;;
17251;SDS011;8742;51.716;8.790;2023-04-01T15:24:19;2.33;;;1.23;;
17251;SDS011;8742;51.716;8.790;2023-04-01T15:27:00;1.60;;;1.50;;
17251;SDS011;8742;51.716;8.790;2023-04-01T15:29:52;2.53;;;2.03;;
17251;SDS011;8742;51.716;8.790;2023-04-01T15:32:45;2.07;;;1.70;;
17251;SDS011;8742;51.716;8.790;2023-04-01T15:35:21;1.50;;;1.40;;
17251;SDS011;8742;51.716;8.790;2023-04-01T15:37:59;1.73;;;1.50;;
17251;SDS011;8742;51.716;8.790;2023-04-01T15:40:38;2.27;;;1.50;;
17251;SDS011;8742;51.716;8.790;2023-04-01T15:43:17;1.80;;;1.30;;
17251;SDS011;8742;51.716;8.790;2023-04-01T15:45:58;1.37;;;1.20;;
17251;SDS011;8742;51.716;8.790;2023-04-01T15:48:46;0.93;;;0.80;;
17251;SDS011;8742;51.716;8.790;2023-04-01T15:51:28;1.47;;;1.27;;
17251;SDS011;8742;51.716;8.790;2023-04-01T15:57:20;2.37;;;1.50;;
17251;SDS011;8742;51.716;8.790;2023-04-01T16:02:51;4.93;;;1.53;;
17251;SDS011;8742;51.716;8.790;2023-04-01T16:05:37;1.37;;;1.27;;
17251;SDS011;8742;51.716;8.790;2023-04-01T16:08:21;2.37;;;2.10;;
17251;SDS011;8742;51.716;8.790;2023-04-01T16:11:19;1.70;;;1.60;;
17251;SDS011;8742;51.716;8.790;2023-04-01T16:13:58;2.10;;;1.80;;
17251;SDS011;8742;51.716;8.790;2023-04-01T16:16:38;1.50;;;1.40;;
17251;SDS011;8742;51.716;8.790;2023-04-01T16:19:26;3.10;;;1.60;;
17251;SDS011;8742;51.716;8.790;2023-04-01T16:22:05;8.60;;;3.60;;
17251;SDS011;8742;51.716;8.790;2023-04-01T16:24:35;2.87;;;2.53;;
17251;SDS011;8742;51.716;8.790;2023-04-01T16:27:08;5.50;;;3.40;;
17251;SDS011;8742;51.716;8.790;2023-04-01T16:29:42;5.20;;;2.27;;
17251;SDS011;8742;51.716;8.790;2023-04-01T16:32:17;4.77;;;2.80;;
17251;SDS011;8742;51.716;8.790;2023-04-01T16:34:54;3.33;;;3.03;;
17251;SDS011;8742;51.716;8.790;2023-04-01T16:37:32;4.23;;;3.33;;
17251;SDS011;8742;51.716;8.790;2023-04-01T16:40:09;2.60;;;2.40;;
17251;SDS011;8742;51.716;8.790;2023-04-01T16:42:43;4.47;;;2.80;;
17251;SDS011;8742;51.716;8.790;2023-04-01T16:45:17;2.97;;;2.50;;
17251;SDS011;8742;51.716;8.790;2023-04-01T16:47:54;2.93;;;2.33;;
17251;SDS011;8742;51.716;8.790;2023-04-01T16:50:23;2.80;;;2.53;;
17251;SDS011;8742;51.716;8.790;2023-04-01T16:52:58;3.53;;;2.57;;
17251;SDS011;8742;51.716;8.790;2023-04-01T16:55:35;10.37;;;2.97;;
17251;SDS011;8742;51.716;8.790;2023-04-01T16:58:14;5.03;;;3.03;;
17251;SDS011;8742;51.716;8.790;2023-04-01T17:00:50;3.87;;;3.33;;
17251;SDS011;8742;51.716;8.790;2023-04-01T17:03:25;5.07;;;3.40;;
17251;SDS011;8742;51.716;8.790;2023-04-01T17:05:58;5.07;;;3.70;;
17251;SDS011;8742;51.716;8.790;2023-04-01T17:08:52;6.27;;;4.43;;
17251;SDS011;8742;51.716;8.790;2023-04-01T17:11:29;6.20;;;4.07;;
17251;SDS011;8742;51.716;8.790;2023-04-01T17:14:05;3.57;;;3.27;;
17251;SDS011;8742;51.716;8.790;2023-04-01T17:16:44;4.23;;;3.40;;
17251;SDS011;8742;51.716;8.790;2023-04-01T17:19:27;5.27;;;3.80;;
17251;SDS011;8742;51.716;8.790;2023-04-01T17:22:13;5.30;;;4.40;;